sensor_id;sensor_type;location;lat;lon;timestamp;temperature;humidity
80412;SHT30;69749;42.684;23.360;2023-05-07T00:01:31;13.30;64.34
80412;SHT30;69749;42.684;23.360;2023-05-07T00:03:56;13.26;65.31
80412;SHT30;69749;42.684;23.360;2023-05-07T00:06:22;13.32;63.35
80412;SHT30;69749;42.684;23.360;2023-05-07T00:08:48;13.36;63.33
80412;SHT30;69749;42.684;23.360;2023-05-07T00:11:13;13.30;63.43
80412;SHT30;69749;42.684;23.360;2023-05-07T00:13:38;13.26;64.12
80412;SHT30;69749;42.684;23.360;2023-05-07T00:16:04;13.16;65.31
80412;SHT30;69749;42.684;23.360;2023-05-07T00:18:30;13.13;64.83
80412;SHT30;69749;42.684;23.360;2023-05-07T00:20:55;13.06;65.19
80412;SHT30;69749;42.684;23.360;2023-05-07T00:23:21;13.05;65.22
80412;SHT30;69749;42.684;23.360;2023-05-07T00:25:47;12.99;66.06
80412;SHT30;69749;42.684;23.360;2023-05-07T00:28:12;12.96;65.72
80412;SHT30;69749;42.684;23.360;2023-05-07T00:30:38;12.96;65.20
80412;SHT30;69749;42.684;23.360;2023-05-07T00:33:03;12.95;65.52
80412;SHT30;69749;42.684;23.360;2023-05-07T00:35:29;12.84;64.90
80412;SHT30;69749;42.684;23.360;2023-05-07T00:37:55;12.85;65.03
80412;SHT30;69749;42.684;23.360;2023-05-07T00:40:20;12.69;65.02
80412;SHT30;69749;42.684;23.360;2023-05-07T00:42:46;12.68;65.65
80412;SHT30;69749;42.684;23.360;2023-05-07T00:45:13;12.62;66.05
80412;SHT30;69749;42.684;23.360;2023-05-07T00:47:39;12.55;65.81
80412;SHT30;69749;42.684;23.360;2023-05-07T00:50:06;12.68;65.35
80412;SHT30;69749;42.684;23.360;2023-05-07T00:52:32;12.67;65.46
80412;SHT30;69749;42.684;23.360;2023-05-07T00:55:00;12.58;67.07
80412;SHT30;69749;42.684;23.360;2023-05-07T00:57:29;12.57;66.24
80412;SHT30;69749;42.684;23.360;2023-05-07T00:59:57;12.62;65.93
80412;SHT30;69749;42.684;23.360;2023-05-07T01:02:23;12.50;66.12
80412;SHT30;69749;42.684;23.360;2023-05-07T01:04:48;12.57;66.13
80412;SHT30;69749;42.684;23.360;2023-05-07T01:07:14;12.55;66.30
80412;SHT30;69749;42.684;23.360;2023-05-07T01:09:39;12.29;65.97
80412;SHT30;69749;42.684;23.360;2023-05-07T01:12:06;11.92;66.65
80412;SHT30;69749;42.684;23.360;2023-05-07T01:14:32;11.89;66.68
80412;SHT30;69749;42.684;23.360;2023-05-07T01:16:58;11.87;66.79
80412;SHT30;69749;42.684;23.360;2023-05-07T01:19:23;11.90;66.57
80412;SHT30;69749;42.684;23.360;2023-05-07T01:21:51;11.96;66.54
80412;SHT30;69749;42.684;23.360;2023-05-07T01:24:16;11.90;66.48
80412;SHT30;69749;42.684;23.360;2023-05-07T01:26:43;11.89;66.76
80412;SHT30;69749;42.684;23.360;2023-05-07T01:29:10;11.97;66.21
80412;SHT30;69749;42.684;23.360;2023-05-07T01:31:36;11.89;66.06
80412;SHT30;69749;42.684;23.360;2023-05-07T01:34:03;11.79;67.12
80412;SHT30;69749;42.684;23.360;2023-05-07T01:36:30;11.72;66.90
80412;SHT30;69749;42.684;23.360;2023-05-07T01:38:57;11.72;67.19
80412;SHT30;69749;42.684;23.360;2023-05-07T01:41:23;11.69;67.28
80412;SHT30;69749;42.684;23.360;2023-05-07T01:43:50;11.50;67.63
80412;SHT30;69749;42.684;23.360;2023-05-07T01:46:17;11.55;67.68
80412;SHT30;69749;42.684;23.360;2023-05-07T01:48:43;11.61;67.74
80412;SHT30;69749;42.684;23.360;2023-05-07T01:51:11;11.62;67.79
80412;SHT30;69749;42.684;23.360;2023-05-07T01:53:37;11.69;68.11
80412;SHT30;69749;42.684;23.360;2023-05-07T01:56:03;11.71;68.60
80412;SHT30;69749;42.684;23.360;2023-05-07T01:58:29;11.72;67.58
80412;SHT30;69749;42.684;23.360;2023-05-07T02:00:54;11.58;67.54
80412;SHT30;69749;42.684;23.360;2023-05-07T02:03:19;11.36;68.54
80412;SHT30;69749;42.684;23.360;2023-05-07T02:05:45;11.48;68.26
80412;SHT30;69749;42.684;23.360;2023-05-07T02:08:10;11.39;68.08
80412;SHT30;69749;42.684;23.360;2023-05-07T02:10:36;11.08;69.51
80412;SHT30;69749;42.684;23.360;2023-05-07T02:13:01;10.84;70.50
80412;SHT30;69749;42.684;23.360;2023-05-07T02:15:27;10.93;70.88
80412;SHT30;69749;42.684;23.360;2023-05-07T02:20:25;10.89;71.20
80412;SHT30;69749;42.684;23.360;2023-05-07T02:22:51;10.97;71.40
80412;SHT30;69749;42.684;23.360;2023-05-07T02:25:16;11.13;70.95
80412;SHT30;69749;42.684;23.360;2023-05-07T02:27:41;11.14;70.94
80412;SHT30;69749;42.684;23.360;2023-05-07T02:30:07;11.08;71.20
80412;SHT30;69749;42.684;23.360;2023-05-07T02:32:33;11.08;71.72
80412;SHT30;69749;42.684;23.360;2023-05-07T02:34:58;11.03;72.43
80412;SHT30;69749;42.684;23.360;2023-05-07T02:37:23;11.01;72.64
80412;SHT30;69749;42.684;23.360;2023-05-07T02:39:49;10.92;73.43
80412;SHT30;69749;42.684;23.360;2023-05-07T02:42:14;10.99;73.40
80412;SHT30;69749;42.684;23.360;2023-05-07T02:44:39;11.01;73.43
80412;SHT30;69749;42.684;23.360;2023-05-07T02:47:05;11.04;73.43
80412;SHT30;69749;42.684;23.360;2023-05-07T02:49:33;11.01;73.59
80412;SHT30;69749;42.684;23.360;2023-05-07T02:51:59;10.94;74.08
80412;SHT30;69749;42.684;23.360;2023-05-07T02:54:24;11.03;74.06
80412;SHT30;69749;42.684;23.360;2023-05-07T02:56:50;11.04;74.18
80412;SHT30;69749;42.684;23.360;2023-05-07T02:59:15;10.97;74.51
80412;SHT30;69749;42.684;23.360;2023-05-07T03:01:40;11.03;74.67
80412;SHT30;69749;42.684;23.360;2023-05-07T03:04:09;10.87;75.19
80412;SHT30;69749;42.684;23.360;2023-05-07T03:06:34;10.92;75.32
80412;SHT30;69749;42.684;23.360;2023-05-07T03:09:00;10.87;75.61
80412;SHT30;69749;42.684;23.360;2023-05-07T03:11:25;10.81;75.86
80412;SHT30;69749;42.684;23.360;2023-05-07T03:13:51;11.03;75.63
80412;SHT30;69749;42.684;23.360;2023-05-07T03:16:16;10.99;75.76
80412;SHT30;69749;42.684;23.360;2023-05-07T03:18:41;10.97;75.91
80412;SHT30;69749;42.684;23.360;2023-05-07T03:21:07;11.07;75.49
80412;SHT30;69749;42.684;23.360;2023-05-07T03:23:32;11.03;75.71
80412;SHT30;69749;42.684;23.360;2023-05-07T03:25:57;11.13;75.19
80412;SHT30;69749;42.684;23.360;2023-05-07T03:28:23;11.15;75.43
80412;SHT30;69749;42.684;23.360;2023-05-07T03:30:48;11.22;75.31
80412;SHT30;69749;42.684;23.360;2023-05-07T03:33:14;11.31;74.88
80412;SHT30;69749;42.684;23.360;2023-05-07T03:35:39;11.38;74.64
80412;SHT30;69749;42.684;23.360;2023-05-07T03:38:05;11.45;74.50
80412;SHT30;69749;42.684;23.360;2023-05-07T03:40:30;11.54;74.00
80412;SHT30;69749;42.684;23.360;2023-05-07T03:42:55;11.61;73.83
80412;SHT30;69749;42.684;23.360;2023-05-07T03:45:21;11.63;73.36
80412;SHT30;69749;42.684;23.360;2023-05-07T03:47:46;11.65;73.25
80412;SHT30;69749;42.684;23.360;2023-05-07T03:50:12;11.71;73.24
80412;SHT30;69749;42.684;23.360;2023-05-07T03:52:37;11.79;73.02
80412;SHT30;69749;42.684;23.360;2023-05-07T03:55:03;11.83;72.92
80412;SHT30;69749;42.684;23.360;2023-05-07T03:57:28;11.94;71.77
80412;SHT30;69749;42.684;23.360;2023-05-07T03:59:53;12.02;71.73
80412;SHT30;69749;42.684;23.360;2023-05-07T04:02:19;12.07;71.75
80412;SHT30;69749;42.684;23.360;2023-05-07T04:04:44;12.17;71.57
80412;SHT30;69749;42.684;23.360;2023-05-07T04:07:09;12.21;71.81
80412;SHT30;69749;42.684;23.360;2023-05-07T04:09:35;12.29;70.96
80412;SHT30;69749;42.684;23.360;2023-05-07T04:12:00;12.34;70.06
80412;SHT30;69749;42.684;23.360;2023-05-07T04:14:26;12.33;69.80
80412;SHT30;69749;42.684;23.360;2023-05-07T04:16:51;12.42;69.84
80412;SHT30;69749;42.684;23.360;2023-05-07T04:19:17;12.45;70.30
80412;SHT30;69749;42.684;23.360;2023-05-07T04:21:42;12.48;70.70
80412;SHT30;69749;42.684;23.360;2023-05-07T04:24:08;12.61;69.86
80412;SHT30;69749;42.684;23.360;2023-05-07T04:26:33;12.71;69.82
80412;SHT30;69749;42.684;23.360;2023-05-07T04:28:59;12.85;69.18
80412;SHT30;69749;42.684;23.360;2023-05-07T04:31:24;12.81;69.45
80412;SHT30;69749;42.684;23.360;2023-05-07T04:33:50;12.88;68.80
80412;SHT30;69749;42.684;23.360;2023-05-07T04:36:16;12.84;69.23
80412;SHT30;69749;42.684;23.360;2023-05-07T04:38:42;12.84;69.34
80412;SHT30;69749;42.684;23.360;2023-05-07T04:41:08;12.85;68.98
80412;SHT30;69749;42.684;23.360;2023-05-07T04:43:34;12.91;69.12
80412;SHT30;69749;42.684;23.360;2023-05-07T04:46:00;12.99;67.54
80412;SHT30;69749;42.684;23.360;2023-05-07T04:48:25;13.02;67.08
80412;SHT30;69749;42.684;23.360;2023-05-07T04:50:51;12.99;67.22
80412;SHT30;69749;42.684;23.360;2023-05-07T04:53:17;13.09;66.72
80412;SHT30;69749;42.684;23.360;2023-05-07T04:55:44;13.08;66.17
80412;SHT30;69749;42.684;23.360;2023-05-07T04:58:10;12.99;66.40
80412;SHT30;69749;42.684;23.360;2023-05-07T05:00:35;13.06;66.38
80412;SHT30;69749;42.684;23.360;2023-05-07T05:03:01;13.10;66.15
80412;SHT30;69749;42.684;23.360;2023-05-07T05:05:26;13.23;66.55
80412;SHT30;69749;42.684;23.360;2023-05-07T05:07:52;13.40;66.16
80412;SHT30;69749;42.684;23.360;2023-05-07T05:10:18;13.61;64.32
80412;SHT30;69749;42.684;23.360;2023-05-07T05:12:43;13.70;64.45
80412;SHT30;69749;42.684;23.360;2023-05-07T05:15:11;13.82;65.26
80412;SHT30;69749;42.684;23.360;2023-05-07T05:17:36;14.04;65.53
80412;SHT30;69749;42.684;23.360;2023-05-07T05:20:02;14.33;64.43
80412;SHT30;69749;42.684;23.360;2023-05-07T05:22:28;14.63;63.04
80412;SHT30;69749;42.684;23.360;2023-05-07T05:24:55;14.83;62.96
80412;SHT30;69749;42.684;23.360;2023-05-07T05:27:20;15.07;62.89
80412;SHT30;69749;42.684;23.360;2023-05-07T05:29:45;15.31;62.18
80412;SHT30;69749;42.684;23.360;2023-05-07T05:32:11;15.65;61.76
80412;SHT30;69749;42.684;23.360;2023-05-07T05:34:36;15.93;59.89
80412;SHT30;69749;42.684;23.360;2023-05-07T05:37:01;16.10;60.00
80412;SHT30;69749;42.684;23.360;2023-05-07T05:39:27;16.17;59.22
80412;SHT30;69749;42.684;23.360;2023-05-07T05:41:53;16.35;59.16
80412;SHT30;69749;42.684;23.360;2023-05-07T05:44:18;16.52;58.33
80412;SHT30;69749;42.684;23.360;2023-05-07T05:46:43;16.91;56.66
80412;SHT30;69749;42.684;23.360;2023-05-07T05:49:09;17.02;57.06
80412;SHT30;69749;42.684;23.360;2023-05-07T05:51:34;17.18;56.44
80412;SHT30;69749;42.684;23.360;2023-05-07T05:53:59;17.40;56.27
80412;SHT30;69749;42.684;23.360;2023-05-07T05:56:25;17.67;56.10
80412;SHT30;69749;42.684;23.360;2023-05-07T05:58:51;17.71;54.38
80412;SHT30;69749;42.684;23.360;2023-05-07T06:01:17;17.92;53.77
80412;SHT30;69749;42.684;23.360;2023-05-07T06:03:42;18.18;53.83
80412;SHT30;69749;42.684;23.360;2023-05-07T06:06:08;18.53;52.74
80412;SHT30;69749;42.684;23.360;2023-05-07T06:08:33;18.83;52.15
80412;SHT30;69749;42.684;23.360;2023-05-07T06:10:59;19.05;51.64
80412;SHT30;69749;42.684;23.360;2023-05-07T06:13:25;19.44;49.02
80412;SHT30;69749;42.684;23.360;2023-05-07T06:15:50;19.36;49.04
80412;SHT30;69749;42.684;23.360;2023-05-07T06:18:15;19.86;47.64
80412;SHT30;69749;42.684;23.360;2023-05-07T06:20:41;20.13;48.00
80412;SHT30;69749;42.684;23.360;2023-05-07T06:23:06;20.75;46.37
80412;SHT30;69749;42.684;23.360;2023-05-07T06:25:32;21.68;45.08
80412;SHT30;69749;42.684;23.360;2023-05-07T06:27:57;22.50;42.79
80412;SHT30;69749;42.684;23.360;2023-05-07T06:30:22;23.42;40.19
80412;SHT30;69749;42.684;23.360;2023-05-07T06:32:48;23.94;38.73
80412;SHT30;69749;42.684;23.360;2023-05-07T06:35:13;24.64;38.01
80412;SHT30;69749;42.684;23.360;2023-05-07T06:37:38;25.20;36.73
80412;SHT30;69749;42.684;23.360;2023-05-07T06:40:06;25.77;36.02
80412;SHT30;69749;42.684;23.360;2023-05-07T06:42:32;26.08;35.23
80412;SHT30;69749;42.684;23.360;2023-05-07T06:44:57;26.67;34.18
80412;SHT30;69749;42.684;23.360;2023-05-07T06:47:22;26.75;33.16
80412;SHT30;69749;42.684;23.360;2023-05-07T06:49:48;27.66;32.51
80412;SHT30;69749;42.684;23.360;2023-05-07T06:52:13;27.79;32.35
80412;SHT30;69749;42.684;23.360;2023-05-07T06:54:39;28.74;31.18
80412;SHT30;69749;42.684;23.360;2023-05-07T06:57:04;29.63;30.29
80412;SHT30;69749;42.684;23.360;2023-05-07T06:59:29;30.28;29.45
80412;SHT30;69749;42.684;23.360;2023-05-07T07:01:55;30.27;29.39
80412;SHT30;69749;42.684;23.360;2023-05-07T07:04:21;30.46;29.13
80412;SHT30;69749;42.684;23.360;2023-05-07T07:06:48;31.18;28.13
80412;SHT30;69749;42.684;23.360;2023-05-07T07:09:13;31.61;27.48
80412;SHT30;69749;42.684;23.360;2023-05-07T07:11:38;31.65;27.42
80412;SHT30;69749;42.684;23.360;2023-05-07T07:14:04;32.44;26.27
80412;SHT30;69749;42.684;23.360;2023-05-07T07:16:30;32.63;26.42
80412;SHT30;69749;42.684;23.360;2023-05-07T07:18:55;32.74;26.47
80412;SHT30;69749;42.684;23.360;2023-05-07T07:21:21;32.57;26.28
80412;SHT30;69749;42.684;23.360;2023-05-07T07:23:46;32.12;26.49
80412;SHT30;69749;42.684;23.360;2023-05-07T07:26:11;31.59;27.60
80412;SHT30;69749;42.684;23.360;2023-05-07T07:28:46;31.24;28.07
80412;SHT30;69749;42.684;23.360;2023-05-07T07:31:12;30.39;28.37
80412;SHT30;69749;42.684;23.360;2023-05-07T07:33:37;30.32;28.91
80412;SHT30;69749;42.684;23.360;2023-05-07T07:36:03;30.27;28.74
80412;SHT30;69749;42.684;23.360;2023-05-07T07:38:28;29.57;29.64
80412;SHT30;69749;42.684;23.360;2023-05-07T07:40:54;29.37;30.33
80412;SHT30;69749;42.684;23.360;2023-05-07T07:43:20;29.20;29.96
80412;SHT30;69749;42.684;23.360;2023-05-07T07:45:45;28.88;30.54
80412;SHT30;69749;42.684;23.360;2023-05-07T07:48:11;28.78;30.59
80412;SHT30;69749;42.684;23.360;2023-05-07T07:50:36;28.72;30.61
80412;SHT30;69749;42.684;23.360;2023-05-07T07:53:02;28.43;31.28
80412;SHT30;69749;42.684;23.360;2023-05-07T07:55:27;28.34;31.08
80412;SHT30;69749;42.684;23.360;2023-05-07T07:57:53;28.13;31.87
80412;SHT30;69749;42.684;23.360;2023-05-07T08:00:18;27.93;31.49
80412;SHT30;69749;42.684;23.360;2023-05-07T08:02:44;26.97;32.48
80412;SHT30;69749;42.684;23.360;2023-05-07T08:05:09;26.80;33.20
80412;SHT30;69749;42.684;23.360;2023-05-07T08:07:35;26.57;33.62
80412;SHT30;69749;42.684;23.360;2023-05-07T08:10:00;26.79;33.84
80412;SHT30;69749;42.684;23.360;2023-05-07T08:12:26;26.72;33.86
80412;SHT30;69749;42.684;23.360;2023-05-07T08:14:51;26.59;34.23
80412;SHT30;69749;42.684;23.360;2023-05-07T08:17:16;26.77;33.92
80412;SHT30;69749;42.684;23.360;2023-05-07T08:19:42;26.55;33.76
80412;SHT30;69749;42.684;23.360;2023-05-07T08:22:09;26.22;34.10
80412;SHT30;69749;42.684;23.360;2023-05-07T08:24:35;25.94;34.10
80412;SHT30;69749;42.684;23.360;2023-05-07T08:27:01;25.97;33.80
80412;SHT30;69749;42.684;23.360;2023-05-07T08:29:26;25.51;33.98
80412;SHT30;69749;42.684;23.360;2023-05-07T08:31:52;25.23;34.67
80412;SHT30;69749;42.684;23.360;2023-05-07T08:34:17;25.46;34.75
80412;SHT30;69749;42.684;23.360;2023-05-07T08:36:43;25.77;34.84
80412;SHT30;69749;42.684;23.360;2023-05-07T08:39:09;26.11;34.84
80412;SHT30;69749;42.684;23.360;2023-05-07T08:41:34;26.06;34.16
80412;SHT30;69749;42.684;23.360;2023-05-07T08:44:02;25.98;34.05
80412;SHT30;69749;42.684;23.360;2023-05-07T08:46:31;26.05;34.18
80412;SHT30;69749;42.684;23.360;2023-05-07T08:48:57;26.21;34.41
80412;SHT30;69749;42.684;23.360;2023-05-07T08:51:22;26.39;33.46
80412;SHT30;69749;42.684;23.360;2023-05-07T08:53:49;26.55;32.94
80412;SHT30;69749;42.684;23.360;2023-05-07T08:56:15;26.70;32.47
80412;SHT30;69749;42.684;23.360;2023-05-07T08:58:42;26.75;32.23
80412;SHT30;69749;42.684;23.360;2023-05-07T09:01:10;26.63;31.95
80412;SHT30;69749;42.684;23.360;2023-05-07T09:03:38;26.63;31.90
80412;SHT30;69749;42.684;23.360;2023-05-07T09:06:06;26.69;32.26
80412;SHT30;69749;42.684;23.360;2023-05-07T09:08:33;26.69;31.31
80412;SHT30;69749;42.684;23.360;2023-05-07T09:10:58;26.82;31.12
80412;SHT30;69749;42.684;23.360;2023-05-07T09:13:24;26.83;30.67
80412;SHT30;69749;42.684;23.360;2023-05-07T09:15:50;26.80;30.65
80412;SHT30;69749;42.684;23.360;2023-05-07T09:18:15;26.77;30.90
80412;SHT30;69749;42.684;23.360;2023-05-07T09:20:41;26.82;30.88
80412;SHT30;69749;42.684;23.360;2023-05-07T09:23:07;26.77;30.78
80412;SHT30;69749;42.684;23.360;2023-05-07T09:25:34;26.66;30.92
80412;SHT30;69749;42.684;23.360;2023-05-07T09:28:01;26.76;31.12
80412;SHT30;69749;42.684;23.360;2023-05-07T09:30:30;26.36;30.71
80412;SHT30;69749;42.684;23.360;2023-05-07T09:32:57;26.32;31.40
80412;SHT30;69749;42.684;23.360;2023-05-07T09:35:24;26.43;30.25
80412;SHT30;69749;42.684;23.360;2023-05-07T09:37:53;26.59;29.70
80412;SHT30;69749;42.684;23.360;2023-05-07T09:40:29;26.57;29.90
80412;SHT30;69749;42.684;23.360;2023-05-07T09:42:55;26.60;30.18
80412;SHT30;69749;42.684;23.360;2023-05-07T09:45:27;26.60;30.00
80412;SHT30;69749;42.684;23.360;2023-05-07T09:47:55;26.61;30.31
80412;SHT30;69749;42.684;23.360;2023-05-07T09:50:30;26.48;29.79
80412;SHT30;69749;42.684;23.360;2023-05-07T09:52:57;26.32;29.18
80412;SHT30;69749;42.684;23.360;2023-05-07T09:55:23;26.28;28.91
80412;SHT30;69749;42.684;23.360;2023-05-07T09:57:53;26.26;29.39
80412;SHT30;69749;42.684;23.360;2023-05-07T10:00:20;26.15;29.84
80412;SHT30;69749;42.684;23.360;2023-05-07T10:02:48;26.15;30.63
80412;SHT30;69749;42.684;23.360;2023-05-07T10:05:15;26.31;30.35
80412;SHT30;69749;42.684;23.360;2023-05-07T10:07:41;26.25;28.14
80412;SHT30;69749;42.684;23.360;2023-05-07T10:10:07;26.17;28.23
80412;SHT30;69749;42.684;23.360;2023-05-07T10:12:33;26.02;28.34
80412;SHT30;69749;42.684;23.360;2023-05-07T10:15:06;26.09;28.77
80412;SHT30;69749;42.684;23.360;2023-05-07T10:17:32;26.08;28.74
80412;SHT30;69749;42.684;23.360;2023-05-07T10:19:57;25.90;28.57
80412;SHT30;69749;42.684;23.360;2023-05-07T10:22:24;25.77;28.72
80412;SHT30;69749;42.684;23.360;2023-05-07T10:24:53;25.64;28.59
80412;SHT30;69749;42.684;23.360;2023-05-07T10:27:20;25.77;28.72
80412;SHT30;69749;42.684;23.360;2023-05-07T10:32:48;25.74;28.21
80412;SHT30;69749;42.684;23.360;2023-05-07T10:35:22;25.60;28.87
80412;SHT30;69749;42.684;23.360;2023-05-07T10:37:48;25.41;29.41
80412;SHT30;69749;42.684;23.360;2023-05-07T10:40:14;25.33;30.67
80412;SHT30;69749;42.684;23.360;2023-05-07T10:42:53;25.40;29.65
80412;SHT30;69749;42.684;23.360;2023-05-07T10:45:20;25.56;29.84
80412;SHT30;69749;42.684;23.360;2023-05-07T10:48:08;25.64;30.43
80412;SHT30;69749;42.684;23.360;2023-05-07T10:50:35;25.57;29.63
80412;SHT30;69749;42.684;23.360;2023-05-07T10:55:49;25.57;29.62
80412;SHT30;69749;42.684;23.360;2023-05-07T11:00:47;25.47;28.81
80412;SHT30;69749;42.684;23.360;2023-05-07T11:03:13;25.43;29.01
80412;SHT30;69749;42.684;23.360;2023-05-07T11:05:41;25.41;28.86
80412;SHT30;69749;42.684;23.360;2023-05-07T11:08:07;25.27;29.31
80412;SHT30;69749;42.684;23.360;2023-05-07T11:10:52;25.16;29.16
80412;SHT30;69749;42.684;23.360;2023-05-07T11:13:19;25.05;29.69
80412;SHT30;69749;42.684;23.360;2023-05-07T11:16:04;24.86;29.33
80412;SHT30;69749;42.684;23.360;2023-05-07T11:18:55;24.82;29.45
80412;SHT30;69749;42.684;23.360;2023-05-07T11:24:00;24.75;29.54
80412;SHT30;69749;42.684;23.360;2023-05-07T11:26:27;24.85;30.19
80412;SHT30;69749;42.684;23.360;2023-05-07T11:28:53;24.99;29.68
80412;SHT30;69749;42.684;23.360;2023-05-07T11:31:24;25.12;28.29
80412;SHT30;69749;42.684;23.360;2023-05-07T11:33:51;25.01;28.11
80412;SHT30;69749;42.684;23.360;2023-05-07T11:36:18;25.03;28.61
80412;SHT30;69749;42.684;23.360;2023-05-07T11:38:43;24.99;29.13
80412;SHT30;69749;42.684;23.360;2023-05-07T11:41:09;25.08;29.08
80412;SHT30;69749;42.684;23.360;2023-05-07T11:43:35;24.99;27.22
80412;SHT30;69749;42.684;23.360;2023-05-07T11:46:08;25.01;28.30
80412;SHT30;69749;42.684;23.360;2023-05-07T11:48:34;24.93;28.45
80412;SHT30;69749;42.684;23.360;2023-05-07T11:51:05;24.93;28.56
80412;SHT30;69749;42.684;23.360;2023-05-07T11:53:38;24.96;28.85
80412;SHT30;69749;42.684;23.360;2023-05-07T11:56:07;25.05;28.27
80412;SHT30;69749;42.684;23.360;2023-05-07T11:58:33;24.91;28.16
80412;SHT30;69749;42.684;23.360;2023-05-07T12:00:59;24.82;28.33
80412;SHT30;69749;42.684;23.360;2023-05-07T12:03:24;24.98;28.57
80412;SHT30;69749;42.684;23.360;2023-05-07T12:05:49;25.03;28.36
80412;SHT30;69749;42.684;23.360;2023-05-07T12:08:19;25.03;28.43
80412;SHT30;69749;42.684;23.360;2023-05-07T12:10:46;25.05;29.14
80412;SHT30;69749;42.684;23.360;2023-05-07T12:13:23;25.11;29.26
80412;SHT30;69749;42.684;23.360;2023-05-07T12:15:55;25.06;28.55
80412;SHT30;69749;42.684;23.360;2023-05-07T12:18:22;25.05;28.27
80412;SHT30;69749;42.684;23.360;2023-05-07T12:20:48;25.02;28.52
80412;SHT30;69749;42.684;23.360;2023-05-07T12:23:15;25.15;28.38
80412;SHT30;69749;42.684;23.360;2023-05-07T12:25:42;25.18;28.73
80412;SHT30;69749;42.684;23.360;2023-05-07T12:28:15;25.16;28.11
80412;SHT30;69749;42.684;23.360;2023-05-07T12:30:40;25.11;28.35
80412;SHT30;69749;42.684;23.360;2023-05-07T12:33:07;25.19;28.22
80412;SHT30;69749;42.684;23.360;2023-05-07T12:35:37;25.18;28.68
80412;SHT30;69749;42.684;23.360;2023-05-07T12:38:17;25.19;28.33
80412;SHT30;69749;42.684;23.360;2023-05-07T12:40:47;25.19;28.02
80412;SHT30;69749;42.684;23.360;2023-05-07T12:43:34;25.08;27.58
80412;SHT30;69749;42.684;23.360;2023-05-07T12:46:02;24.98;27.10
80412;SHT30;69749;42.684;23.360;2023-05-07T12:48:28;25.02;26.73
80412;SHT30;69749;42.684;23.360;2023-05-07T12:50:55;25.09;26.92
80412;SHT30;69749;42.684;23.360;2023-05-07T12:53:23;25.02;26.40
80412;SHT30;69749;42.684;23.360;2023-05-07T12:55:51;24.99;26.62
80412;SHT30;69749;42.684;23.360;2023-05-07T12:58:19;25.02;26.27
80412;SHT30;69749;42.684;23.360;2023-05-07T13:00:44;24.96;26.86
80412;SHT30;69749;42.684;23.360;2023-05-07T13:03:11;24.98;27.01
80412;SHT30;69749;42.684;23.360;2023-05-07T13:05:36;25.01;27.41
80412;SHT30;69749;42.684;23.360;2023-05-07T13:08:02;25.01;27.02
80412;SHT30;69749;42.684;23.360;2023-05-07T13:10:28;24.99;27.26
80412;SHT30;69749;42.684;23.360;2023-05-07T13:12:54;24.95;27.50
80412;SHT30;69749;42.684;23.360;2023-05-07T13:15:20;24.99;27.06
80412;SHT30;69749;42.684;23.360;2023-05-07T13:17:45;25.01;27.00
80412;SHT30;69749;42.684;23.360;2023-05-07T13:20:11;25.01;26.61
80412;SHT30;69749;42.684;23.360;2023-05-07T13:22:38;25.05;27.01
80412;SHT30;69749;42.684;23.360;2023-05-07T13:25:03;25.06;27.76
80412;SHT30;69749;42.684;23.360;2023-05-07T13:27:29;25.20;28.03
80412;SHT30;69749;42.684;23.360;2023-05-07T13:29:56;25.16;28.44
80412;SHT30;69749;42.684;23.360;2023-05-07T13:32:21;25.24;28.21
80412;SHT30;69749;42.684;23.360;2023-05-07T13:34:47;25.16;27.75
80412;SHT30;69749;42.684;23.360;2023-05-07T13:37:12;24.98;27.81
80412;SHT30;69749;42.684;23.360;2023-05-07T13:39:37;24.92;28.22
80412;SHT30;69749;42.684;23.360;2023-05-07T13:42:03;24.85;28.53
80412;SHT30;69749;42.684;23.360;2023-05-07T13:44:28;24.99;28.37
80412;SHT30;69749;42.684;23.360;2023-05-07T13:46:53;24.95;28.15
80412;SHT30;69749;42.684;23.360;2023-05-07T13:49:19;24.92;27.97
80412;SHT30;69749;42.684;23.360;2023-05-07T13:51:44;24.86;28.53
80412;SHT30;69749;42.684;23.360;2023-05-07T13:54:10;24.85;28.14
80412;SHT30;69749;42.684;23.360;2023-05-07T13:56:36;24.93;28.26
80412;SHT30;69749;42.684;23.360;2023-05-07T13:59:01;25.06;27.96
80412;SHT30;69749;42.684;23.360;2023-05-07T14:01:30;24.98;28.14
80412;SHT30;69749;42.684;23.360;2023-05-07T14:03:56;25.03;28.35
80412;SHT30;69749;42.684;23.360;2023-05-07T14:06:23;25.03;28.46
80412;SHT30;69749;42.684;23.360;2023-05-07T14:08:48;25.02;29.05
80412;SHT30;69749;42.684;23.360;2023-05-07T14:11:13;24.99;29.61
80412;SHT30;69749;42.684;23.360;2023-05-07T14:13:39;24.95;29.75
80412;SHT30;69749;42.684;23.360;2023-05-07T14:16:05;24.99;29.75
80412;SHT30;69749;42.684;23.360;2023-05-07T14:18:30;25.12;29.10
80412;SHT30;69749;42.684;23.360;2023-05-07T14:20:56;25.16;28.92
80412;SHT30;69749;42.684;23.360;2023-05-07T14:23:21;25.06;29.01
80412;SHT30;69749;42.684;23.360;2023-05-07T14:25:54;25.05;29.01
80412;SHT30;69749;42.684;23.360;2023-05-07T14:28:19;25.01;29.35
80412;SHT30;69749;42.684;23.360;2023-05-07T14:30:45;24.96;29.03
80412;SHT30;69749;42.684;23.360;2023-05-07T14:33:10;24.95;28.77
80412;SHT30;69749;42.684;23.360;2023-05-07T14:35:36;24.95;28.37
80412;SHT30;69749;42.684;23.360;2023-05-07T14:38:01;24.92;28.74
80412;SHT30;69749;42.684;23.360;2023-05-07T14:40:26;25.03;29.11
80412;SHT30;69749;42.684;23.360;2023-05-07T14:42:52;25.02;29.70
80412;SHT30;69749;42.684;23.360;2023-05-07T14:45:17;25.16;28.62
80412;SHT30;69749;42.684;23.360;2023-05-07T14:47:42;25.11;28.90
80412;SHT30;69749;42.684;23.360;2023-05-07T14:50:08;24.85;28.49
80412;SHT30;69749;42.684;23.360;2023-05-07T14:52:37;24.78;29.34
80412;SHT30;69749;42.684;23.360;2023-05-07T14:55:02;24.76;29.40
80412;SHT30;69749;42.684;23.360;2023-05-07T14:57:28;24.86;29.27
80412;SHT30;69749;42.684;23.360;2023-05-07T14:59:53;24.83;29.46
80412;SHT30;69749;42.684;23.360;2023-05-07T15:02:19;24.86;29.49
80412;SHT30;69749;42.684;23.360;2023-05-07T15:04:44;24.82;29.78
80412;SHT30;69749;42.684;23.360;2023-05-07T15:07:14;24.68;29.58
80412;SHT30;69749;42.684;23.360;2023-05-07T15:09:41;24.69;29.26
80412;SHT30;69749;42.684;23.360;2023-05-07T15:12:06;24.74;29.28
80412;SHT30;69749;42.684;23.360;2023-05-07T15:14:32;24.72;28.89
80412;SHT30;69749;42.684;23.360;2023-05-07T15:16:58;24.62;29.59
80412;SHT30;69749;42.684;23.360;2023-05-07T15:19:24;24.68;29.63
80412;SHT30;69749;42.684;23.360;2023-05-07T15:21:54;24.72;29.61
80412;SHT30;69749;42.684;23.360;2023-05-07T15:24:19;24.67;30.04